Time;durP1;ratioP1;P1;durP2;ratioP2;P2;SDS_P1;SDS_P2;PMS_P1;PMS_P2;Temp;Humidity;BMP_temperature;BMP_pressure;BME280_temperature;BME280_humidity;BME280_pressure;Samples;Min_cycle;Max_cycle;Signal;HPM_P1;HPM_P2
2022/10/08 00:00:27;;;;;;;24.92;13.23;;;;;;;9.11;100.00;96239.50;1035330;28;20072;-69
2022/10/08 00:01:02;;;;;;;23.67;12.52;;;;;;;9.12;100.00;96233.25;1034096;28;20049;-70
2022/10/08 00:01:33;;;;;;;23.75;12.95;;;;;;;9.12;100.00;96235.06;1030373;28;20022;-69
2022/10/08 00:02:04;;;;;;;22.90;13.18;;;;;;;9.12;100.00;96238.50;1022597;29;20288;-69
2022/10/08 00:02:34;;;;;;;25.17;12.85;;;;;;;9.11;100.00;96231.66;1023173;28;20776;-67
2022/10/08 00:03:05;;;;;;;23.85;13.27;;;;;;;9.14;100.00;96233.78;1026814;28;20026;-69
2022/10/08 00:03:37;;;;;;;23.83;13.10;;;;;;;9.14;100.00;96231.16;1035625;28;20647;-69
2022/10/08 00:04:09;;;;;;;23.00;12.23;;;;;;;9.14;100.00;96233.00;1034433;28;20544;-70
2022/10/08 00:04:39;;;;;;;23.75;12.57;;;;;;;9.14;100.00;96228.56;1026143;28;20266;-70
2022/10/08 00:05:10;;;;;;;20.15;11.45;;;;;;;9.15;100.00;96229.34;1026322;28;20270;-70
2022/10/08 00:05:40;;;;;;;24.73;11.98;;;;;;;9.11;100.00;96220.38;1026056;28;20027;-69
2022/10/08 00:06:15;;;;;;;23.90;13.20;;;;;;;9.14;100.00;96227.75;1018599;28;20499;-69
2022/10/08 00:06:45;;;;;;;26.75;13.02;;;;;;;9.16;100.00;96233.56;1025788;28;20023;-70
2022/10/08 00:07:16;;;;;;;23.92;12.98;;;;;;;9.17;100.00;96229.91;1022519;29;20275;-69
2022/10/08 00:07:46;;;;;;;25.15;12.90;;;;;;;9.17;100.00;96235.13;1024278;28;20028;-69
2022/10/08 00:08:17;;;;;;;25.23;13.25;;;;;;;9.17;100.00;96230.69;1033694;28;20026;-69
2022/10/08 00:08:55;;;;;;;26.65;13.13;;;;;;;9.17;100.00;96230.69;1022464;28;20039;-69
2022/10/08 00:09:25;;;;;;;24.20;12.98;;;;;;;9.19;100.00;96230.47;1022500;29;20034;-69
2022/10/08 00:09:56;;;;;;;25.85;13.05;;;;;;;9.19;100.00;96223.41;1022279;29;20377;-69
2022/10/08 00:10:26;;;;;;;23.02;13.27;;;;;;;9.20;100.00;96219.75;1027312;28;20027;-69
2022/10/08 00:10:59;;;;;;;25.95;13.65;;;;;;;9.24;100.00;96224.50;1025244;28;20031;-71
2022/10/08 00:11:37;;;;;;;23.90;12.13;;;;;;;9.25;100.00;96223.44;1018968;29;20608;-69
2022/10/08 00:12:07;;;;;;;26.83;13.15;;;;;;;9.25;100.00;96223.44;1026229;28;20324;-69
2022/10/08 00:12:38;;;;;;;25.38;13.38;;;;;;;9.25;100.00;96226.84;1029273;28;20747;-69
2022/10/08 00:13:08;;;;;;;23.77;12.32;;;;;;;9.27;100.00;96224.00;1034574;28;20037;-70
2022/10/08 00:13:39;;;;;;;30.15;13.60;;;;;;;9.26;100.00;96222.44;1033534;28;20182;-69
2022/10/08 00:14:10;;;;;;;21.20;12.10;;;;;;;9.26;100.00;96227.69;1030462;28;20077;-69
2022/10/08 00:14:40;;;;;;;24.77;12.63;;;;;;;9.28;100.00;96225.59;1030411;28;20273;-69
2022/10/08 00:15:11;;;;;;;24.05;12.52;;;;;;;9.28;100.00;96226.38;1026455;28;20029;-68
2022/10/08 00:15:42;;;;;;;20.75;12.23;;;;;;;9.29;100.00;96227.16;1029895;28;20030;-69
2022/10/08 00:16:17;;;;;;;28.10;13.57;;;;;;;9.28;100.00;96221.13;1034188;28;20094;-71
2022/10/08 00:16:47;;;;;;;23.23;12.55;;;;;;;9.32;100.00;96229.31;1023295;28;20274;-68
2022/10/08 00:17:18;;;;;;;25.50;13.50;;;;;;;9.31;100.00;96225.91;1026260;28;20282;-69
2022/10/08 00:17:48;;;;;;;26.77;12.60;;;;;;;9.33;100.00;96228.28;1026479;28;20035;-71
2022/10/08 00:18:19;;;;;;;29.27;13.80;;;;;;;9.32;100.00;96227.50;1026464;28;20026;-70
2022/10/08 00:18:50;;;;;;;24.55;13.35;;;;;;;9.34;100.00;96224.63;1030174;28;20525;-68
2022/10/08 00:19:21;;;;;;;25.73;12.95;;;;;;;9.33;100.00;96233.53;1022319;29;20279;-69
2022/10/08 00:19:53;;;;;;;28.63;13.25;;;;;;;9.33;100.00;96225.66;1014628;29;20834;-70
2022/10/08 00:20:23;;;;;;;22.35;13.50;;;;;;;9.30;100.00;96221.69;1018998;29;20028;-69
2022/10/08 00:21:03;;;;;;;29.48;13.63;;;;;;;9.33;100.00;96229.06;1026747;28;20289;-69
2022/10/08 00:21:35;;;;;;;21.02;11.68;;;;;;;9.25;100.00;96220.84;1033097;28;20047;-69
2022/10/08 00:22:06;;;;;;;22.27;11.82;;;;;;;9.28;100.00;96225.59;1023833;28;20418;-69
2022/10/08 00:22:36;;;;;;;21.30;12.38;;;;;;;9.31;100.00;96230.34;1030274;28;20277;-70
2022/10/08 00:23:07;;;;;;;21.80;12.10;;;;;;;9.31;100.00;96223.28;1022329;29;20487;-69
2022/10/08 00:23:37;;;;;;;23.38;12.93;;;;;;;9.32;100.00;96227.50;1022364;29;20094;-69
2022/10/08 00:24:11;;;;;;;22.50;12.50;;;;;;;9.34;100.00;96230.66;1026093;28;20546;-69
2022/10/08 00:24:41;;;;;;;23.38;12.88;;;;;;;9.34;100.00;96225.41;1026568;28;20062;-69
2022/10/08 00:25:12;;;;;;;23.50;12.50;;;;;;;9.35;100.00;96223.59;1030441;28;20952;-69
2022/10/08 00:25:43;;;;;;;25.10;12.75;;;;;;;9.37;100.00;96224.16;1029449;28;20926;-70
2022/10/08 00:26:14;;;;;;;24.08;12.60;;;;;;;9.34;100.00;96211.53;1026303;28;20023;-69
2022/10/08 00:26:44;;;;;;;24.75;12.07;;;;;;;9.39;100.00;96222.09;1026349;28;20023;-69
2022/10/08 00:27:15;;;;;;;24.42;13.38;;;;;;;9.39;100.00;96227.31;1031679;28;20305;-67
2022/10/08 00:27:45;;;;;;;23.67;12.85;;;;;;;9.37;100.00;96224.16;1030537;28;20022;-71
2022/10/08 00:28:16;;;;;;;25.17;13.07;;;;;;;9.37;100.00;96226.75;1031094;28;20022;-69
2022/10/08 00:28:46;;;;;;;20.63;12.25;;;;;;;9.38;100.00;96231.75;1030986;28;20667;-71
2022/10/08 00:29:18;;;;;;;23.65;12.60;;;;;;;9.39;100.00;96232.56;1031298;28;20023;-70
2022/10/08 00:29:50;;;;;;;24.25;13.65;;;;;;;9.39;100.00;96224.72;1035372;28;20121;-69
2022/10/08 00:30:21;;;;;;;23.77;12.43;;;;;;;9.42;100.00;96227.63;1035224;28;20281;-68
2022/10/08 00:30:51;;;;;;;26.42;13.55;;;;;;;9.41;100.00;96220.78;1034924;28;20621;-69
2022/10/08 00:31:26;;;;;;;27.20;13.35;;;;;;;9.46;100.00;96225.31;1035137;28;20022;-69
2022/10/08 00:31:57;;;;;;;25.13;13.27;;;;;;;9.43;100.00;96223.97;1035337;28;20026;-69
2022/10/08 00:32:27;;;;;;;24.70;13.45;;;;;;;9.49;100.00;96226.63;1034468;28;20280;-70
2022/10/08 00:32:58;;;;;;;24.08;12.85;;;;;;;9.49;100.00;96230.06;1030266;28;20026;-69
2022/10/08 00:33:28;;;;;;;24.02;13.88;;;;;;;9.48;100.00;96220.63;1027895;28;20031;-69
2022/10/08 00:34:00;;;;;;;24.10;12.93;;;;;;;9.47;100.00;96229.50;1032135;28;20530;-68
2022/10/08 00:34:30;;;;;;;22.98;13.20;;;;;;;9.49;100.00;96226.63;1035382;28;20021;-70
2022/10/08 00:35:01;;;;;;;24.80;13.13;;;;;;;9.43;100.00;96220.56;1031073;28;20269;-69
2022/10/08 00:35:37;;;;;;;26.23;13.73;;;;;;;9.51;100.00;96235.06;1026577;28;20058;-69
2022/10/08 00:36:10;;;;;;;24.70;12.52;;;;;;;9.47;100.00;96219.03;1027227;28;20110;-68
2022/10/08 00:36:40;;;;;;;24.48;12.55;;;;;;;9.51;100.00;96224.56;1028228;28;20266;-69
2022/10/08 00:37:11;;;;;;;27.40;13.38;;;;;;;9.52;100.00;96229.56;1028114;28;21105;-70
2022/10/08 00:37:41;;;;;;;22.30;13.27;;;;;;;9.54;100.00;96230.13;1031133;28;20037;-69
2022/10/08 00:38:12;;;;;;;23.73;12.70;;;;;;;9.54;100.00;96224.88;1031328;28;20422;-69
2022/10/08 00:38:42;;;;;;;29.48;13.45;;;;;;;9.55;100.00;96221.22;1031187;28;20025;-69
2022/10/08 00:39:14;;;;;;;22.45;12.98;;;;;;;9.56;100.00;96216.78;1034659;28;20573;-70
2022/10/08 00:39:44;;;;;;;24.20;12.48;;;;;;;9.57;100.00;96219.16;1026787;28;20120;-68
2022/10/08 00:40:15;;;;;;;25.30;13.85;;;;;;;9.59;100.00;96227.56;1023192;29;20310;-67
2022/10/08 00:40:45;;;;;;;26.02;13.27;;;;;;;9.56;100.00;96217.59;1026895;28;20031;-70
2022/10/08 00:41:18;;;;;;;24.48;13.43;;;;;;;9.62;100.00;96221.84;1023235;28;20019;-68
2022/10/08 00:41:51;;;;;;;24.20;12.88;;;;;;;9.64;100.00;96225.00;1035173;28;20053;-69
2022/10/08 00:42:22;;;;;;;28.40;13.93;;;;;;;9.64;100.00;96225.00;1027015;28;20286;-71
2022/10/08 00:42:52;;;;;;;24.08;12.68;;;;;;;9.65;100.00;96218.72;1027157;28;20683;-68
2022/10/08 00:43:39;;;;;;;25.75;13.70;;;;;;;9.67;100.00;96226.34;1026844;28;20386;-69
2022/10/08 00:44:46;;;;;;;24.63;13.10;;;;;;;9.66;100.00;96222.94;1029083;28;20022;-70
2022/10/08 00:45:17;;;;;;;24.55;11.52;;;;;;;9.65;100.00;96216.09;1035290;28;20287;-70
2022/10/08 00:45:48;;;;;;;23.00;12.85;;;;;;;9.66;100.00;96211.69;1034674;28;20267;-69
2022/10/08 00:46:24;;;;;;;25.88;12.98;;;;;;;9.64;100.00;96209.28;1031082;28;20030;-70
2022/10/08 00:46:54;;;;;;;22.50;13.70;;;;;;;9.61;100.00;96201.91;1027244;28;20023;-70
2022/10/08 00:47:49;;;;;;;25.10;12.75;;;;;;;9.64;100.00;96206.66;1018211;29;20282;-70
2022/10/08 00:48:24;;;;;;;23.25;12.55;;;;;;;9.63;100.00;96212.16;1023164;28;20023;-69
2022/10/08 00:49:14;;;;;;;24.75;11.98;;;;;;;9.64;100.00;96208.50;1030984;28;20262;-68
2022/10/08 00:49:46;;;;;;;25.20;11.68;;;;;;;9.61;100.00;96209.78;1027185;28;20274;-69
2022/10/08 00:50:19;;;;;;;27.02;13.60;;;;;;;9.62;100.00;96213.19;1019056;29;20027;-70
2022/10/08 00:50:49;;;;;;;24.90;12.25;;;;;;;9.60;100.00;96212.66;1019222;29;20311;-69
2022/10/08 00:51:20;;;;;;;24.48;13.13;;;;;;;9.62;100.00;96210.56;1023475;28;21136;-69
2022/10/08 00:51:54;;;;;;;24.10;13.25;;;;;;;9.61;100.00;96204.53;1031581;28;20022;-69
2022/10/08 00:52:25;;;;;;;27.42;13.75;;;;;;;9.63;100.00;96201.69;1027247;28;20050;-69
2022/10/08 00:52:58;;;;;;;24.85;12.38;;;;;;;9.62;100.00;96206.13;1026794;28;20266;-69
2022/10/08 00:53:29;;;;;;;22.45;12.02;;;;;;;9.63;100.00;96207.72;1027095;28;20746;-70
2022/10/08 00:54:00;;;;;;;22.83;12.82;;;;;;;9.61;100.00;96199.28;1019142;29;20275;-72
2022/10/08 00:54:31;;;;;;;23.25;12.68;;;;;;;9.62;100.00;96198.28;1022987;29;20019;-69
2022/10/08 00:55:05;;;;;;;21.08;12.13;;;;;;;9.63;100.00;96199.84;1019148;29;20275;-71
2022/10/08 00:55:37;;;;;;;27.20;13.60;;;;;;;9.64;100.00;96198.81;1019125;29;20031;-71
2022/10/08 00:56:08;;;;;;;25.35;13.40;;;;;;;9.63;100.00;96197.22;1020943;28;20351;-70
2022/10/08 00:56:38;;;;;;;24.85;12.95;;;;;;;9.62;100.00;96198.28;1020106;29;20267;-70
2022/10/08 00:57:09;;;;;;;24.73;12.90;;;;;;;9.47;100.00;96178.97;1019172;29;20027;-69
2022/10/08 00:57:40;;;;;;;20.80;12.50;;;;;;;9.64;100.00;96193.56;1023013;29;20034;-70
2022/10/08 00:58:17;;;;;;;22.10;12.48;;;;;;;9.64;100.00;96196.19;1014999;29;20067;-70
2022/10/08 00:58:48;;;;;;;22.80;11.93;;;;;;;9.60;100.00;96187.22;1023100;29;20023;-70
2022/10/08 00:59:19;;;;;;;24.40;11.98;;;;;;;9.62;100.00;96190.41;1028153;28;20278;-70
2022/10/08 00:59:49;;;;;;;24.70;12.95;;;;;;;9.65;100.00;96200.38;1025837;28;20085;-70
2022/10/08 01:00:22;;;;;;;21.52;12.75;;;;;;;9.64;100.00;96196.19;1014920;29;20058;-70
2022/10/08 01:00:52;;;;;;;26.33;13.43;;;;;;;9.63;100.00;96201.69;1015737;29;20032;-69
2022/10/08 01:01:23;;;;;;;23.85;12.38;;;;;;;9.63;100.00;96194.59;1023140;28;20293;-70
2022/10/08 01:01:53;;;;;;;21.70;11.82;;;;;;;9.64;100.00;96198.81;1027487;28;20564;-70
2022/10/08 01:02:24;;;;;;;26.35;12.85;;;;;;;9.64;100.00;96193.56;1031006;28;20109;-70
2022/10/08 01:02:54;;;;;;;21.40;12.27;;;;;;;9.64;100.00;96193.56;1031029;28;20030;-68
2022/10/08 01:03:25;;;;;;;25.05;11.55;;;;;;;9.63;100.00;96197.22;1036301;28;20485;-70
2022/10/08 01:03:56;;;;;;;20.25;11.90;;;;;;;9.64;100.00;96190.16;1035067;28;20030;-69
2022/10/08 01:04:28;;;;;;;23.88;12.38;;;;;;;9.62;100.00;96195.66;1034962;28;20018;-70
2022/10/08 01:04:59;;;;;;;27.08;13.57;;;;;;;9.62;100.00;96193.03;1030900;28;20330;-69
2022/10/08 01:05:40;;;;;;;21.50;11.05;;;;;;;9.63;100.00;96192.00;1030489;28;20646;-70
2022/10/08 01:06:25;;;;;;;27.95;11.90;;;;;;;9.64;100.00;96192.78;1022988;29;20030;-70
2022/10/08 01:07:01;;;;;;;22.65;11.75;;;;;;;9.57;100.00;96185.09;1026914;28;20626;-69
2022/10/08 01:07:43;;;;;;;23.02;11.82;;;;;;;9.62;100.00;96185.16;1019277;29;20267;-69
2022/10/08 01:08:38;;;;;;;21.80;11.07;;;;;;;9.61;100.00;96195.88;1027025;28;20356;-70
2022/10/08 01:09:23;;;;;;;21.67;10.80;;;;;;;9.60;100.00;96195.09;1028222;28;20266;-69
2022/10/08 01:10:05;;;;;;;21.33;10.57;;;;;;;9.59;100.00;96190.91;1024284;28;20783;-70
2022/10/08 01:10:44;;;;;;;20.77;11.00;;;;;;;9.58;100.00;96189.28;1026831;28;20334;-69
2022/10/08 01:11:32;;;;;;;23.95;11.82;;;;;;;9.61;100.00;96186.19;1026889;28;20333;-67
2022/10/08 01:12:34;;;;;;;21.00;10.63;;;;;;;9.62;100.00;96184.34;1030867;28;20341;-69
2022/10/08 01:13:16;;;;;;;;;;;;;;;9.65;100.00;96184.66;1027685;28;20337;-69
2022/10/08 01:14:03;;;;;;;19.63;9.10;;;;;;;9.61;100.00;96188.03;1032438;28;20008;-70
2022/10/08 01:14:55;;;;;;;22.35;10.25;;;;;;;9.60;100.00;96187.22;1030951;28;20375;-68
2022/10/08 01:15:49;;;;;;;20.05;9.82;;;;;;;9.60;100.00;96183.81;1031458;28;20387;-71
2022/10/08 01:16:33;;;;;;;19.65;10.98;;;;;;;9.54;100.00;96180.34;1032108;28;20273;-69
2022/10/08 01:17:32;;;;;;;20.75;11.60;;;;;;;9.56;100.00;96182.75;1025945;28;20250;-70
2022/10/08 01:18:20;;;;;;;24.65;11.57;;;;;;;9.52;100.00;96187.66;1020366;29;20275;-70
2022/10/08 01:19:37;;;;;;;20.35;11.18;;;;;;;9.52;100.00;96185.03;1028280;28;20800;-69
2022/10/08 01:20:16;;;;;;;26.30;11.73;;;;;;;9.50;100.00;96184.50;1035049;28;21027;-70
2022/10/08 01:20:54;;;;;;;20.27;10.50;;;;;;;9.51;100.00;96188.69;1031784;28;20262;-69
2022/10/08 01:21:46;;;;;;;25.17;11.65;;;;;;;9.51;100.00;96186.06;1031024;28;20328;-70
2022/10/08 01:22:35;;;;;;;20.17;10.57;;;;;;;9.51;100.00;96182.66;1030669;28;20729;-70
2022/10/08 01:23:44;;;;;;;24.92;11.13;;;;;;;9.51;100.00;96188.69;1026386;28;20254;-69
2022/10/08 01:24:14;;;;;;;18.88;10.60;;;;;;;9.49;100.00;96185.53;1022896;28;20266;-67
2022/10/08 01:26:16;;;;;;;21.70;10.65;;;;;;;9.46;100.00;96186.03;1019087;28;20034;-70
2022/10/08 01:26:55;;;;;;;23.00;12.38;;;;;;;9.48;100.00;96188.38;1015922;28;20292;-68
2022/10/08 01:27:45;;;;;;;25.88;12.52;;;;;;;9.46;100.00;96186.03;1026763;28;20274;-69
2022/10/08 01:28:21;;;;;;;21.25;11.57;;;;;;;9.42;100.00;96184.91;1022860;28;20306;-70
2022/10/08 01:29:17;;;;;;;19.48;12.13;;;;;;;9.47;100.00;96178.97;1027524;28;20344;-69
2022/10/08 01:29:48;;;;;;;22.10;12.02;;;;;;;9.44;100.00;96182.84;1022543;29;20263;-69
2022/10/08 01:30:18;;;;;;;20.33;11.80;;;;;;;9.45;100.00;96189.66;1018982;29;20810;-69
2022/10/08 01:31:17;;;;;;;22.40;12.02;;;;;;;9.45;100.00;96187.84;1015057;29;20063;-70
2022/10/08 01:32:20;;;;;;;20.65;11.85;;;;;;;9.45;100.00;96182.59;1016505;29;20032;-69
2022/10/08 01:33:12;;;;;;;21.52;11.55;;;;;;;9.40;100.00;96171.28;1022922;29;20267;-70
2022/10/08 01:34:01;;;;;;;21.25;10.95;;;;;;;9.41;100.00;96178.09;1026918;28;20345;-70
2022/10/08 01:34:51;;;;;;;18.20;10.45;;;;;;;9.39;100.00;96180.19;1030959;28;20249;-70
2022/10/08 01:35:25;;;;;;;18.05;10.13;;;;;;;9.38;100.00;96175.97;1031199;28;20283;-69
2022/10/08 01:35:57;;;;;;;22.13;11.57;;;;;;;9.34;100.00;96167.00;1034701;28;20038;-70
2022/10/08 01:36:30;;;;;;;19.15;10.18;;;;;;;9.36;100.00;96175.44;1030889;28;20313;-70
2022/10/08 01:37:00;;;;;;;19.63;10.93;;;;;;;9.35;100.00;96176.44;1026825;28;20345;-69
2022/10/08 01:37:35;;;;;;;23.33;11.70;;;;;;;9.36;100.00;96172.81;1020840;28;20311;-70
2022/10/08 01:38:05;;;;;;;24.13;12.82;;;;;;;9.33;100.00;96168.84;1019933;29;20086;-70
2022/10/08 01:38:40;;;;;;;20.50;11.32;;;;;;;9.39;100.00;96175.72;1026886;28;20327;-68
2022/10/08 01:39:16;;;;;;;24.45;12.48;;;;;;;9.40;100.00;96179.13;1020351;29;20027;-68
2022/10/08 01:39:46;;;;;;;21.58;11.63;;;;;;;9.39;100.00;96172.31;1030288;28;20321;-69
2022/10/08 01:40:19;;;;;;;23.73;11.80;;;;;;;9.41;100.00;96178.09;1026694;28;20282;-69
2022/10/08 01:40:50;;;;;;;22.88;11.73;;;;;;;9.40;100.00;96172.06;1029749;28;20288;-70
2022/10/08 01:41:23;;;;;;;20.92;11.85;;;;;;;9.41;100.00;96168.41;1027487;28;20344;-70
2022/10/08 01:41:55;;;;;;;18.50;10.93;;;;;;;9.42;100.00;96174.44;1034867;28;20756;-70
2022/10/08 01:42:25;;;;;;;24.45;11.85;;;;;;;9.42;100.00;96171.81;1030470;28;20265;-70
2022/10/08 01:42:57;;;;;;;25.10;11.68;;;;;;;9.39;100.00;96164.47;1023071;29;20266;-69
2022/10/08 01:43:30;;;;;;;25.52;11.48;;;;;;;9.44;100.00;96172.38;1026928;28;20552;-69
2022/10/08 01:44:07;;;;;;;20.42;11.32;;;;;;;9.43;100.00;96176.03;1022741;29;20266;-69
2022/10/08 01:44:42;;;;;;;20.83;11.60;;;;;;;9.43;100.00;96171.59;1018959;29;20547;-69
2022/10/08 01:45:15;;;;;;;22.83;11.50;;;;;;;9.42;100.00;96163.94;1027067;28;20267;-69
2022/10/08 01:45:49;;;;;;;18.08;10.52;;;;;;;9.46;100.00;96172.94;1018252;29;20283;-70
2022/10/08 01:46:22;;;;;;;20.88;11.25;;;;;;;9.48;100.00;96177.91;1011160;29;20273;-69
2022/10/08 01:46:55;;;;;;;21.77;10.57;;;;;;;9.48;100.00;96165.59;1027147;28;20276;-69
2022/10/08 01:47:27;;;;;;;21.13;10.35;;;;;;;9.47;100.00;96166.66;1018985;29;21057;-69
2022/10/08 01:47:59;;;;;;;18.27;9.38;;;;;;;9.50;100.00;96168.00;1024385;28;20622;-69
2022/10/08 01:48:32;;;;;;;21.92;11.48;;;;;;;9.51;100.00;96172.19;1020224;29;20499;-69
2022/10/08 01:49:06;;;;;;;20.92;11.10;;;;;;;9.52;100.00;96169.31;1030823;28;20306;-69
2022/10/08 01:49:42;;;;;;;25.65;11.30;;;;;;;9.53;100.00;96167.50;1024258;28;20353;-69
2022/10/08 01:50:35;;;;;;;19.38;10.30;;;;;;;9.57;100.00;96169.38;1021545;29;20670;-68
2022/10/08 01:51:33;;;;;;;19.35;10.57;;;;;;;9.58;100.00;96170.16;1012853;29;20352;-68
2022/10/08 01:52:07;;;;;;;16.80;9.43;;;;;;;9.54;100.00;96159.38;1018203;29;20286;-71
2022/10/08 01:52:46;;;;;;;22.98;10.32;;;;;;;9.58;100.00;96168.34;1020062;29;20280;-70
2022/10/08 01:53:17;;;;;;;18.10;10.38;;;;;;;9.57;100.00;96158.91;1032088;28;20305;-70
2022/10/08 01:53:48;;;;;;;20.27;11.32;;;;;;;9.61;100.00;96162.59;1030741;28;20453;-70
2022/10/08 01:54:20;;;;;;;17.15;10.13;;;;;;;9.62;100.00;96172.06;1033250;28;20030;-72
2022/10/08 01:54:51;;;;;;;18.52;10.90;;;;;;;9.61;100.00;96167.84;1033748;28;20269;-69
2022/10/08 01:55:33;;;;;;;19.30;10.63;;;;;;;9.64;100.00;96164.75;1030904;28;20277;-67
2022/10/08 01:56:05;;;;;;;19.52;10.25;;;;;;;9.63;100.00;96157.13;1030790;28;20290;-70
2022/10/08 01:56:35;;;;;;;16.92;9.73;;;;;;;9.66;100.00;96160.06;1035329;28;20265;-70
2022/10/08 01:57:07;;;;;;;18.42;11.35;;;;;;;9.66;100.00;96161.88;1034930;28;21025;-69
2022/10/08 01:57:37;;;;;;;17.98;10.30;;;;;;;9.66;100.00;96154.81;1022794;29;20027;-70
2022/10/08 01:58:15;;;;;;;18.00;10.77;;;;;;;9.67;100.00;96161.63;1023130;29;20271;-70
2022/10/08 01:58:54;;;;;;;20.80;10.55;;;;;;;9.71;100.00;96155.91;1026452;28;20697;-70
2022/10/08 01:59:31;;;;;;;19.35;9.95;;;;;;;9.69;100.00;96158.75;1019387;29;20271;-70
2022/10/08 02:00:12;;;;;;;19.35;11.43;;;;;;;9.68;100.00;96154.56;1014978;29;20268;-70
2022/10/08 02:00:42;;;;;;;;;;;;;;;9.70;100.00;96155.13;1018810;29;20798;-70
2022/10/08 02:01:16;;;;;;;17.08;9.55;;;;;;;9.70;100.00;96160.34;1025124;28;19914;-70
2022/10/08 02:01:55;;;;;;;20.40;9.85;;;;;;;9.70;100.00;96159.56;1028748;28;20027;-70
2022/10/08 02:02:26;;;;;;;18.92;9.88;;;;;;;9.68;100.00;96160.59;1033051;28;20265;-71
2022/10/08 02:02:56;;;;;;;17.80;10.40;;;;;;;9.68;100.00;96154.56;1029143;28;20622;-69
2022/10/08 02:03:27;;;;;;;17.73;9.52;;;;;;;9.70;100.00;96159.56;1026930;28;20030;-70
2022/10/08 02:04:47;;;;;;;17.33;9.50;;;;;;;9.65;100.00;96155.03;1018995;29;20055;-70
2022/10/08 02:05:17;;;;;;;18.10;9.70;;;;;;;9.67;100.00;96151.16;1023729;28;20362;-69
2022/10/08 02:05:49;;;;;;;16.95;9.05;;;;;;;9.66;100.00;96159.28;1026176;28;20042;-69
2022/10/08 02:06:19;;;;;;;17.13;9.30;;;;;;;9.65;100.00;96153.22;1018914;29;20035;-70
2022/10/08 02:06:55;;;;;;;16.67;10.05;;;;;;;9.63;100.00;96155.31;1030575;28;20296;-70
2022/10/08 02:07:30;;;;;;;16.27;9.55;;;;;;;9.64;100.00;96162.13;1031124;28;20033;-70
2022/10/08 02:08:00;;;;;;;18.05;10.10;;;;;;;9.63;100.00;96154.53;1038826;28;20303;-71
2022/10/08 02:08:31;;;;;;;21.10;10.05;;;;;;;9.63;100.00;96154.53;1022734;28;20279;-69
2022/10/08 02:09:03;;;;;;;20.13;9.77;;;;;;;9.60;100.00;96149.75;1026746;28;20053;-69
2022/10/08 02:09:38;;;;;;;16.73;10.40;;;;;;;9.65;100.00;96155.84;1022857;29;20102;-70
2022/10/08 02:10:13;;;;;;;16.92;9.65;;;;;;;9.65;100.00;96155.03;1028337;28;20297;-69
2022/10/08 02:10:44;;;;;;;15.02;8.93;;;;;;;9.57;100.00;96145.03;1030701;28;20265;-70
2022/10/08 02:11:14;;;;;;;16.35;9.65;;;;;;;9.61;100.00;96157.38;1026507;28;20289;-68
2022/10/08 02:11:45;;;;;;;19.38;9.38;;;;;;;9.61;100.00;96154.75;1023219;29;20034;-69
2022/10/08 02:12:15;;;;;;;17.08;9.27;;;;;;;9.60;100.00;96150.56;1026710;28;20566;-70
2022/10/08 02:12:46;;;;;;;16.52;10.18;;;;;;;9.59;100.00;96151.59;1022942;28;20027;-70
2022/10/08 02:13:16;;;;;;;16.73;9.43;;;;;;;9.58;100.00;96155.25;1026847;28;20212;-70
2022/10/08 02:13:47;;;;;;;16.55;9.43;;;;;;;9.58;100.00;96152.63;1022674;29;20462;-70
2022/10/08 02:14:18;;;;;;;20.02;9.77;;;;;;;9.55;100.00;96147.88;1023144;28;20035;-69
2022/10/08 02:14:52;;;;;;;15.98;9.68;;;;;;;9.56;100.00;96154.72;1018898;29;20385;-70
2022/10/08 02:15:28;;;;;;;16.10;9.20;;;;;;;9.55;100.00;96149.69;1025964;28;20038;-69
2022/10/08 02:16:04;;;;;;;18.83;9.40;;;;;;;9.55;100.00;96144.47;1034822;28;20760;-69
2022/10/08 02:16:35;;;;;;;15.52;9.30;;;;;;;9.53;100.00;96151.78;1034764;28;20269;-68
2022/10/08 02:17:08;;;;;;;14.00;9.13;;;;;;;9.52;100.00;96153.59;1030631;28;20625;-71
2022/10/08 02:18:07;;;;;;;18.23;9.65;;;;;;;9.50;100.00;96144.41;1029132;28;20265;-69
2022/10/08 02:18:44;;;;;;;15.18;8.82;;;;;;;9.49;100.00;96154.09;1031100;28;20341;-69
2022/10/08 02:19:43;;;;;;;16.30;8.98;;;;;;;9.48;100.00;96155.13;1030580;28;20296;-70
2022/10/08 02:20:40;;;;;;;17.95;8.23;;;;;;;9.44;100.00;96157.44;1022043;28;20298;-69
2022/10/08 02:21:23;;;;;;;17.50;8.80;;;;;;;9.42;100.00;96149.06;1026425;28;20293;-69
2022/10/08 02:21:54;;;;;;;15.32;8.57;;;;;;;9.42;100.00;96150.84;1021000;28;20279;-69
2022/10/08 02:22:33;;;;;;;17.02;9.27;;;;;;;9.41;100.00;96151.91;1023367;28;20900;-70
2022/10/08 02:23:12;;;;;;;19.27;8.98;;;;;;;9.38;100.00;96147.94;1026697;28;20093;-69
2022/10/08 02:23:48;;;;;;;18.70;9.02;;;;;;;9.39;100.00;96151.38;1031205;28;20022;-70
2022/10/08 02:24:23;;;;;;;17.80;8.70;;;;;;;9.37;100.00;96153.44;1026753;28;20676;-69
2022/10/08 02:25:10;;;;;;;15.25;9.35;;;;;;;9.34;100.00;96146.84;1026836;28;20262;-68
2022/10/08 02:25:58;;;;;;;15.20;9.27;;;;;;;9.34;100.00;96148.69;1025786;28;20269;-71
2022/10/08 02:26:39;;;;;;;14.85;8.40;;;;;;;9.28;100.00;96139.19;1034587;28;20310;-70
2022/10/08 02:27:09;;;;;;;16.52;8.98;;;;;;;9.30;100.00;96148.38;1031430;28;20281;-70
2022/10/08 02:27:44;;;;;;;17.85;9.52;;;;;;;9.28;100.00;96147.03;1034787;28;20265;-70
2022/10/08 02:28:33;;;;;;;17.25;8.65;;;;;;;9.26;100.00;96146.50;1030861;28;20030;-68
2022/10/08 02:29:12;;;;;;;14.10;8.20;;;;;;;9.23;100.00;96144.38;1030564;28;20764;-69
2022/10/08 02:29:46;;;;;;;14.38;8.27;;;;;;;9.23;100.00;96144.38;1022592;29;20263;-70
2022/10/08 02:30:17;;;;;;;19.45;9.40;;;;;;;9.27;100.00;96145.47;1022801;29;20750;-68
2022/10/08 02:30:57;;;;;;;18.25;9.90;;;;;;;9.26;100.00;96149.91;1030775;28;20437;-69
2022/10/08 02:31:45;;;;;;;16.35;9.27;;;;;;;9.19;100.00;96139.63;1022730;29;20026;-68
2022/10/08 02:32:22;;;;;;;16.58;9.48;;;;;;;9.24;100.00;96146.72;1023464;28;20035;-70
2022/10/08 02:33:01;;;;;;;16.60;9.02;;;;;;;9.24;100.00;96151.19;1026656;28;20293;-70
2022/10/08 02:33:57;;;;;;;17.10;9.65;;;;;;;9.23;100.00;96147.00;1022972;29;20270;-69
2022/10/08 02:34:30;;;;;;;15.07;8.48;;;;;;;9.21;100.00;96147.22;1018154;29;20286;-70
2022/10/08 02:35:14;;;;;;;14.40;8.70;;;;;;;9.24;100.00;96149.34;1017786;29;20487;-70
2022/10/08 02:35:45;;;;;;;15.38;9.05;;;;;;;9.23;100.00;96149.59;1030105;28;20258;-69
2022/10/08 02:36:18;;;;;;;14.85;8.85;;;;;;;9.18;100.00;96138.00;1035145;28;20272;-69
2022/10/08 02:37:23;;;;;;;17.48;9.80;;;;;;;9.23;100.00;96147.00;1034961;28;20300;-69
2022/10/08 02:38:03;;;;;;;15.95;9.30;;;;;;;9.20;100.00;96143.81;1025952;28;20258;-70
2022/10/08 02:38:46;;;;;;;15.98;8.48;;;;;;;9.21;100.00;96145.38;1028680;28;20270;-71
2022/10/08 02:39:16;;;;;;;15.57;8.05;;;;;;;9.19;100.00;96147.47;1033163;28;20328;-69
2022/10/08 02:39:49;;;;;;;19.42;9.85;;;;;;;9.16;100.00;96145.34;1035074;28;20740;-69
2022/10/08 02:40:20;;;;;;;17.95;9.10;;;;;;;9.21;100.00;96150.63;1034932;28;20116;-70
2022/10/08 02:40:51;;;;;;;16.95;9.20;;;;;;;9.17;100.00;96139.06;1030903;28;20266;-70
2022/10/08 02:41:28;;;;;;;17.38;10.00;;;;;;;9.21;100.00;96147.22;1030903;28;20106;-69
2022/10/08 02:42:00;;;;;;;16.92;8.52;;;;;;;9.21;100.00;96145.38;1026911;28;20270;-69
2022/10/08 02:42:30;;;;;;;20.60;10.23;;;;;;;9.21;100.00;96148.00;1034915;28;20717;-69
2022/10/08 02:43:06;;;;;;;18.25;10.27;;;;;;;9.22;100.00;96143.56;1026993;28;20280;-70
2022/10/08 02:43:40;;;;;;;20.17;8.73;;;;;;;9.20;100.00;96145.63;1022894;29;20023;-69
2022/10/08 02:44:13;;;;;;;17.25;9.20;;;;;;;9.21;100.00;96144.59;1018843;29;20373;-69
2022/10/08 02:44:46;;;;;;;16.38;9.35;;;;;;;9.19;100.00;96144.84;1026845;28;20290;-70
2022/10/08 02:45:39;;;;;;;15.15;9.48;;;;;;;9.19;100.00;96139.63;1022896;29;20282;-70
2022/10/08 02:46:13;;;;;;;18.58;10.38;;;;;;;9.19;100.00;96137.00;1026839;28;20263;-71
2022/10/08 02:46:45;;;;;;;15.35;9.02;;;;;;;9.18;100.00;96140.63;1030966;28;20269;-69
2022/10/08 02:47:17;;;;;;;18.30;9.50;;;;;;;9.19;100.00;96139.63;1035108;28;20792;-69